الصفحة الرئيسية
METAR-TAF:

METAR-TAF

مطار :

تبليسي, جورجيا

دائرة عرض: 41-40-09N, خط طول: 044-57-17E, ارتفاع: 495 متر

مراقبة الطقس الحالي

تاريخ ووقت الإصدار 23 دقيقة قبل الساعة 02:30UTC
ريح 8 عقدة من الشرق/الجنوب الشرقي
درجة الحرارة 24°درجة مئوية
الرطوبة 47%
ضغط 1013 hPa
الرؤية 10 كم أو أكثر
غيوم مفككة على ارتفاع 5700 قدم

METAR: UGTB 150230Z 11008KT 9999 BKN057 24/12 Q1013 NOSIG

زمن: 06:53 (02:53 UTC)

توقعات

تاريخ ووقت الإصدار 3ساعات و 53 دقيقة قبل الساعة 23:00UTC
التوقعات صالحة من15 الساعة 00 UTC إلى 15 الساعة 24 UTC
ريح 6 عقدة من الشرق
الرؤية 10 كم أو أكثر
غيوم متفرقة على ارتفاع 5800 قدم

TAF: UGTB 142300Z 1500/1524 09006KT 9999 SCT058 TX30/1512Z TN22/1502Z

أرصاد الطقس والتوقعات من أكثر من 4000 مطار (تقارير الطقس للمطار METAR والتنبؤ بالطقس بالمطارTAF).

المحطات المتاحة هي النقط الصفراء والحمراء على الخريطة.

حرك المؤشر فوق النقطة لمعرفة اسم المحطة.

ثم انقر لمعرفة أرصاد وتوقعات الطقس.

لتغيير الخارطة: اضغط على الأزرار الخضراء مع رمز الصليب الأسود للتكبير. على الزر الأخضر مع شرطة للتصغير، أو على الأسهم الخضراء للخرائط المجاورة.


METAR-TAF: